Time;durP1;ratioP1;P1;durP2;ratioP2;P2;SDS_P1;SDS_P2;PMS_P1;PMS_P2;Temp;Humidity;BMP_temperature;BMP_pressure;BME280_temperature;BME280_humidity;BME280_pressure;Samples;Min_cycle;Max_cycle;Signal;HPM_P1;HPM_P2
2023/04/27 00:02:17;;;;;;;3.20;1.50;;;4.20;99.90;;;;;;5038739;28;20029;-69
2023/04/27 00:04:45;;;;;;;4.20;1.80;;;4.20;99.90;;;;;;5029741;28;20041;-70
2023/04/27 00:07:14;;;;;;;3.80;1.80;;;4.20;99.90;;;;;;5030607;28;20096;-69
2023/04/27 00:09:39;;;;;;;4.80;1.85;;;4.20;99.90;;;;;;5049846;28;20041;-70
2023/04/27 00:12:05;;;;;;;6.25;1.98;;;4.20;99.90;;;;;;5032046;28;20029;-70
2023/04/27 00:14:31;;;;;;;5.40;2.38;;;4.20;99.90;;;;;;5046785;28;20476;-69
2023/04/27 00:16:57;;;;;;;4.35;2.13;;;4.10;99.90;;;;;;5031719;28;20063;-69
2023/04/27 00:19:22;;;;;;;4.95;2.03;;;4.10;99.90;;;;;;5045254;28;20118;-70
2023/04/27 00:21:48;;;;;;;3.78;2.00;;;4.10;99.90;;;;;;5045076;28;20051;-72
2023/04/27 00:24:13;;;;;;;5.40;2.28;;;4.00;99.90;;;;;;5030862;28;20037;-70
2023/04/27 00:26:39;;;;;;;4.50;1.80;;;4.00;99.90;;;;;;5045860;28;20033;-70
2023/04/27 00:29:04;;;;;;;3.17;1.75;;;4.00;99.90;;;;;;5032385;28;20045;-70
2023/04/27 00:31:30;;;;;;;5.57;1.80;;;4.00;99.90;;;;;;5047097;28;20033;-71
2023/04/27 00:33:56;;;;;;;4.50;2.28;;;4.00;99.90;;;;;;5036847;28;20029;-71
2023/04/27 00:36:21;;;;;;;5.07;2.05;;;3.90;99.90;;;;;;5047102;28;20044;-70
2023/04/27 00:38:47;;;;;;;5.05;1.77;;;3.90;99.90;;;;;;5045983;28;20120;-72
2023/04/27 00:41:12;;;;;;;5.43;2.25;;;3.90;99.90;;;;;;5031180;28;20045;-71
2023/04/27 00:43:45;;;;;;;5.40;2.20;;;3.90;99.90;;;;;;5046974;28;20659;-70
2023/04/27 00:46:12;;;;;;;5.18;2.42;;;3.80;99.90;;;;;;5042196;28;20063;-70
2023/04/27 00:48:38;;;;;;;5.43;2.20;;;3.80;99.90;;;;;;5046078;28;20033;-70
2023/04/27 00:51:05;;;;;;;5.85;2.10;;;3.80;99.90;;;;;;5045930;28;20120;-70
2023/04/27 00:53:30;;;;;;;5.70;1.67;;;3.80;99.90;;;;;;5033848;28;20116;-69
2023/04/27 00:55:57;;;;;;;7.03;2.15;;;3.80;99.90;;;;;;5033414;28;20445;-70
2023/04/27 00:58:23;;;;;;;4.88;1.83;;;3.80;99.90;;;;;;5035223;28;20045;-70
2023/04/27 01:00:49;;;;;;;5.30;1.77;;;3.80;99.90;;;;;;5033479;28;20033;-72
2023/04/27 01:03:16;;;;;;;6.60;2.13;;;3.80;99.90;;;;;;5034683;28;20039;-70
2023/04/27 01:05:42;;;;;;;8.52;2.33;;;3.80;99.90;;;;;;5035141;28;20296;-76
2023/04/27 01:08:10;;;;;;;5.05;1.67;;;3.80;99.90;;;;;;5032083;28;20068;-70
2023/04/27 01:10:40;;;;;;;4.18;2.03;;;3.90;99.90;;;;;;5035333;28;20714;-70
2023/04/27 01:13:05;;;;;;;12.63;3.42;;;3.90;99.90;;;;;;5031735;28;20040;-70
2023/04/27 01:15:31;;;;;;;6.25;2.20;;;4.00;99.90;;;;;;5036363;28;20040;-70
2023/04/27 01:17:58;;;;;;;3.58;1.70;;;3.90;99.90;;;;;;5034435;28;20041;-71
2023/04/27 01:20:23;;;;;;;13.02;3.22;;;4.00;99.90;;;;;;5038902;28;20033;-69
2023/04/27 01:22:49;;;;;;;5.93;2.60;;;3.90;99.90;;;;;;5053881;28;20040;-71
2023/04/27 01:25:18;;;;;;;4.25;2.05;;;3.90;99.90;;;;;;5048320;28;20408;-70
2023/04/27 01:27:44;;;;;;;6.90;2.45;;;3.90;99.90;;;;;;5055886;28;20098;-70
2023/04/27 01:30:14;;;;;;;3.60;1.83;;;3.80;99.90;;;;;;5049875;28;20103;-70
2023/04/27 01:32:40;;;;;;;4.13;1.60;;;3.80;99.90;;;;;;5046726;28;20143;-70
2023/04/27 01:35:08;;;;;;;5.80;2.28;;;3.70;99.90;;;;;;5033891;28;20129;-70
2023/04/27 01:37:34;;;;;;;5.82;2.53;;;3.70;99.90;;;;;;5042578;28;20049;-70
2023/04/27 01:40:05;;;;;;;7.82;2.30;;;3.70;99.90;;;;;;5035615;28;20036;-70
2023/04/27 01:42:31;;;;;;;10.05;2.88;;;3.70;99.90;;;;;;5037634;28;20033;-70
2023/04/27 01:44:56;;;;;;;5.63;2.17;;;3.70;99.90;;;;;;5045562;28;20029;-70
2023/04/27 01:47:22;;;;;;;4.18;1.92;;;3.70;99.90;;;;;;5037403;28;20029;-70
2023/04/27 01:49:47;;;;;;;6.72;1.88;;;3.70;99.90;;;;;;5033764;28;20116;-71
2023/04/27 01:52:13;;;;;;;8.50;2.30;;;3.70;99.90;;;;;;5036568;28;20036;-70
2023/04/27 01:54:38;;;;;;;3.97;2.05;;;3.60;99.90;;;;;;5033998;28;20049;-70
2023/04/27 01:57:04;;;;;;;4.95;2.60;;;3.60;99.90;;;;;;5036021;28;20055;-70
2023/04/27 01:59:29;;;;;;;3.35;1.70;;;3.60;99.90;;;;;;5037073;28;20045;-70
2023/04/27 02:01:55;;;;;;;5.05;2.22;;;3.50;99.90;;;;;;5035428;28;20129;-70
2023/04/27 02:04:21;;;;;;;3.28;1.65;;;3.50;99.90;;;;;;5046416;28;20064;-70
2023/04/27 02:06:46;;;;;;;3.83;1.75;;;3.50;99.90;;;;;;5047304;28;20033;-70
2023/04/27 02:09:15;;;;;;;7.75;1.88;;;3.50;99.90;;;;;;5048862;28;20112;-70
2023/04/27 02:11:40;;;;;;;3.95;1.92;;;3.40;99.90;;;;;;5049758;28;20044;-69
2023/04/27 02:14:06;;;;;;;2.95;1.65;;;3.40;99.90;;;;;;5049049;28;20507;-69
2023/04/27 02:16:35;;;;;;;9.18;1.75;;;3.40;99.90;;;;;;5056704;28;20033;-70
2023/04/27 02:19:00;;;;;;;9.55;2.78;;;3.40;99.90;;;;;;5047394;28;20041;-69
2023/04/27 02:21:27;;;;;;;6.95;1.80;;;3.30;99.90;;;;;;5050045;28;20059;-70
2023/04/27 02:23:52;;;;;;;6.40;2.10;;;3.30;99.90;;;;;;5048505;28;20032;-70
2023/04/27 02:26:19;;;;;;;4.22;2.13;;;3.30;99.90;;;;;;5049717;28;20036;-70
2023/04/27 02:28:46;;;;;;;4.20;2.17;;;3.30;99.90;;;;;;5033658;28;20033;-70
2023/04/27 02:31:12;;;;;;;8.98;2.17;;;3.30;99.90;;;;;;5030243;28;20413;-70
2023/04/27 02:33:38;;;;;;;6.05;2.30;;;3.40;99.90;;;;;;5036588;28;20108;-70
2023/04/27 02:36:04;;;;;;;6.05;1.75;;;3.50;99.90;;;;;;5038424;28;20163;-70
2023/04/27 02:38:30;;;;;;;10.43;2.47;;;3.50;99.90;;;;;;5048548;28;20506;-70
2023/04/27 02:41:01;;;;;;;2.92;1.77;;;3.50;99.90;;;;;;5047873;28;20021;-71
2023/04/27 02:43:30;;;;;;;2.78;1.90;;;3.50;99.90;;;;;;5039315;28;20037;-70
2023/04/27 02:45:55;;;;;;;8.82;2.80;;;3.50;99.90;;;;;;5047300;28;20115;-70
2023/04/27 02:48:21;;;;;;;4.85;1.77;;;3.50;99.90;;;;;;5039557;28;20140;-69
2023/04/27 02:50:46;;;;;;;4.82;2.00;;;3.50;99.90;;;;;;5048463;28;20041;-69
2023/04/27 02:53:12;;;;;;;7.00;1.75;;;3.60;99.90;;;;;;5048684;28;20489;-70
2023/04/27 02:55:44;;;;;;;3.97;1.50;;;3.70;99.90;;;;;;5048744;28;20524;-70
2023/04/27 02:58:16;;;;;;;8.52;1.65;;;3.70;99.90;;;;;;5047839;28;20068;-69
2023/04/27 03:00:42;;;;;;;7.38;2.10;;;3.80;99.90;;;;;;5048714;28;20047;-70
2023/04/27 03:03:08;;;;;;;7.07;1.70;;;3.80;99.90;;;;;;5044717;28;20029;-70
2023/04/27 03:05:35;;;;;;;4.03;1.50;;;3.80;99.90;;;;;;5035694;28;20074;-70
2023/04/27 03:08:00;;;;;;;9.30;1.65;;;3.80;99.90;;;;;;5030265;28;20033;-70
2023/04/27 03:10:29;;;;;;;4.57;1.58;;;3.80;99.90;;;;;;5046580;28;20102;-70
2023/04/27 03:12:54;;;;;;;5.78;1.73;;;3.70;99.90;;;;;;5047363;28;20039;-70
2023/04/27 03:15:20;;;;;;;6.57;1.83;;;3.80;99.90;;;;;;5031540;28;20040;-70
2023/04/27 03:17:46;;;;;;;5.43;2.33;;;3.80;99.90;;;;;;5048226;28;20654;-70
2023/04/27 03:20:11;;;;;;;5.80;1.70;;;3.80;99.90;;;;;;5047892;28;20508;-70
2023/04/27 03:22:37;;;;;;;8.07;3.25;;;3.90;99.90;;;;;;5048782;28;20107;-70
2023/04/27 03:25:03;;;;;;;5.68;2.17;;;3.90;99.90;;;;;;5031576;28;20045;-69
2023/04/27 03:27:29;;;;;;;3.55;2.08;;;3.90;99.90;;;;;;5035418;28;20021;-70
2023/04/27 03:29:55;;;;;;;7.38;2.60;;;3.80;99.90;;;;;;5030996;28;20036;-70
2023/04/27 03:32:20;;;;;;;4.32;1.80;;;3.80;99.90;;;;;;5032676;28;20075;-70
2023/04/27 03:34:46;;;;;;;3.80;2.05;;;3.80;99.90;;;;;;5047311;28;20029;-70
2023/04/27 03:37:14;;;;;;;6.97;1.77;;;3.80;99.90;;;;;;5037688;28;20037;-70
2023/04/27 03:39:40;;;;;;;5.18;1.90;;;3.80;99.90;;;;;;5036933;28;20140;-70
2023/04/27 03:42:06;;;;;;;2.83;1.70;;;3.70;99.90;;;;;;5032806;28;20045;-72
2023/04/27 03:44:33;;;;;;;3.75;1.50;;;3.70;99.90;;;;;;5048627;28;20029;-70
2023/04/27 03:46:59;;;;;;;7.15;2.70;;;3.80;99.90;;;;;;5046853;28;20041;-69
2023/04/27 03:49:25;;;;;;;6.90;2.55;;;3.80;99.90;;;;;;5048345;28;20041;-70
2023/04/27 03:51:51;;;;;;;4.85;1.60;;;3.80;99.90;;;;;;5038004;28;20139;-70
2023/04/27 03:54:22;;;;;;;7.07;1.90;;;3.80;99.90;;;;;;5048445;28;20125;-70
2023/04/27 03:56:48;;;;;;;5.47;1.92;;;3.80;99.90;;;;;;5038409;28;20091;-70
2023/04/27 03:59:13;;;;;;;6.32;1.58;;;3.80;99.90;;;;;;5048330;28;20387;-70
2023/04/27 04:01:40;;;;;;;5.43;1.85;;;3.80;99.90;;;;;;5048612;28;20698;-70
2023/04/27 04:04:05;;;;;;;7.18;1.75;;;3.80;99.90;;;;;;5047583;28;20369;-70
2023/04/27 04:06:31;;;;;;;4.10;1.70;;;3.70;99.90;;;;;;5049143;28;20048;-70
2023/04/27 04:08:57;;;;;;;6.95;1.92;;;3.70;99.90;;;;;;5034189;28;20033;-70
2023/04/27 04:11:29;;;;;;;4.63;1.80;;;3.70;99.90;;;;;;5031975;28;20063;-70
2023/04/27 04:13:57;;;;;;;7.68;2.00;;;3.60;99.90;;;;;;5046270;28;20075;-69
2023/04/27 04:16:26;;;;;;;6.05;1.83;;;3.50;99.90;;;;;;5047600;28;20053;-70
2023/04/27 04:18:51;;;;;;;5.63;1.75;;;3.50;99.90;;;;;;5045585;28;20123;-70
2023/04/27 04:21:17;;;;;;;4.18;1.70;;;3.40;99.90;;;;;;5047478;28;20186;-69
2023/04/27 04:23:43;;;;;;;3.28;1.30;;;3.40;99.90;;;;;;5038182;28;20094;-69
2023/04/27 04:26:17;;;;;;;4.03;1.42;;;3.40;99.90;;;;;;5046290;28;20040;-70
2023/04/27 04:28:46;;;;;;;5.63;2.03;;;3.40;99.90;;;;;;5047091;28;20159;-75
2023/04/27 04:31:12;;;;;;;3.60;1.73;;;3.40;99.90;;;;;;5053566;28;20033;-70
2023/04/27 04:33:37;;;;;;;4.00;1.85;;;3.40;99.90;;;;;;5047776;28;20048;-70
2023/04/27 04:36:03;;;;;;;5.95;2.10;;;3.40;99.90;;;;;;5046599;28;20049;-70
2023/04/27 04:38:29;;;;;;;10.95;1.70;;;3.40;99.90;;;;;;5047880;28;20056;-70
2023/04/27 04:40:54;;;;;;;6.72;1.83;;;3.50;99.90;;;;;;5033816;28;20043;-69
2023/04/27 04:43:23;;;;;;;5.53;1.27;;;3.50;99.90;;;;;;5048604;28;20037;-69
2023/04/27 04:45:49;;;;;;;6.25;1.92;;;3.50;99.90;;;;;;5042344;28;20068;-70
2023/04/27 04:48:15;;;;;;;5.88;1.92;;;3.60;99.90;;;;;;5057715;28;20060;-69
2023/04/27 04:50:41;;;;;;;10.80;2.33;;;3.70;99.90;;;;;;5041382;28;20403;-71
2023/04/27 04:53:12;;;;;;;5.30;1.40;;;3.70;99.90;;;;;;5046324;28;20295;-70
2023/04/27 04:55:41;;;;;;;4.55;1.65;;;3.70;99.90;;;;;;5047131;28;20120;-69
2023/04/27 04:58:07;;;;;;;4.78;1.60;;;3.70;99.90;;;;;;5046025;28;20083;-70
2023/04/27 05:00:32;;;;;;;3.45;1.60;;;3.80;99.90;;;;;;5035076;28;20029;-70
2023/04/27 05:02:58;;;;;;;3.20;1.35;;;3.80;99.90;;;;;;5033791;28;20022;-70
2023/04/27 05:05:26;;;;;;;6.03;1.70;;;3.90;99.90;;;;;;5037188;28;20036;-69
2023/04/27 05:07:52;;;;;;;6.38;2.30;;;4.00;99.90;;;;;;5035712;28;20095;-70
2023/04/27 05:10:21;;;;;;;9.90;1.17;;;4.10;99.90;;;;;;5046717;28;20033;-70
2023/04/27 05:12:46;;;;;;;7.53;1.90;;;4.10;99.90;;;;;;5047196;28;20140;-69
2023/04/27 05:15:12;;;;;;;5.78;1.63;;;4.20;99.90;;;;;;5052319;28;20551;-70
2023/04/27 05:17:37;;;;;;;8.40;1.55;;;4.30;99.90;;;;;;5037964;28;20032;-70
2023/04/27 05:20:07;;;;;;;4.80;1.75;;;4.40;99.90;;;;;;5045695;28;20124;-70
2023/04/27 05:22:32;;;;;;;5.78;1.45;;;4.50;99.90;;;;;;5046917;28;20691;-70
2023/04/27 05:25:02;;;;;;;5.55;2.10;;;4.50;99.90;;;;;;5051860;28;20033;-70
2023/04/27 05:27:27;;;;;;;5.00;1.55;;;4.60;99.90;;;;;;5043089;28;20036;-70
2023/04/27 05:29:53;;;;;;;4.85;1.30;;;4.80;99.90;;;;;;5033246;28;20745;-70
2023/04/27 05:32:21;;;;;;;4.20;1.80;;;4.90;99.90;;;;;;5046488;28;20662;-70
2023/04/27 05:34:47;;;;;;;6.80;2.30;;;5.00;99.90;;;;;;5045646;28;20118;-70
2023/04/27 05:37:15;;;;;;;2.17;1.27;;;5.00;99.90;;;;;;5034004;28;20136;-70
2023/04/27 05:39:44;;;;;;;7.65;2.05;;;5.10;99.90;;;;;;5034472;28;20136;-69
2023/04/27 05:42:10;;;;;;;7.05;1.45;;;5.30;99.90;;;;;;5046943;28;20064;-69
2023/04/27 05:44:35;;;;;;;2.53;1.15;;;5.40;99.90;;;;;;5038668;28;20060;-69
2023/04/27 05:47:01;;;;;;;5.22;1.77;;;5.50;99.90;;;;;;5038654;28;20070;-70
2023/04/27 05:49:26;;;;;;;4.32;1.60;;;5.70;99.90;;;;;;5049878;28;20159;-70
2023/04/27 05:51:52;;;;;;;4.15;1.52;;;5.80;99.90;;;;;;5048835;28;20029;-71
2023/04/27 05:54:24;;;;;;;7.03;1.50;;;6.00;99.90;;;;;;5038072;28;20040;-70
2023/04/27 05:56:50;;;;;;;5.05;1.58;;;6.30;99.90;;;;;;5048826;28;20033;-71
2023/04/27 05:59:15;;;;;;;7.05;2.17;;;6.90;99.90;;;;;;5037756;28;20472;-70
2023/04/27 06:01:44;;;;;;;5.65;1.50;;;7.90;99.90;;;;;;5048632;28;20041;-71
2023/04/27 06:04:16;;;;;;;7.70;1.52;;;8.90;99.90;;;;;;5047945;28;20420;-71
2023/04/27 06:06:41;;;;;;;2.90;1.25;;;9.90;99.90;;;;;;5048455;28;20141;-70
2023/04/27 06:09:10;;;;;;;3.15;1.55;;;10.70;99.90;;;;;;5034553;28;20120;-70
2023/04/27 06:11:39;;;;;;;4.07;1.50;;;11.60;99.90;;;;;;5038340;28;20712;-70
2023/04/27 06:14:04;;;;;;;4.00;1.52;;;12.60;99.90;;;;;;5036819;28;20029;-70
2023/04/27 06:16:30;;;;;;;3.60;1.60;;;13.50;98.80;;;;;;5048877;28;20040;-70
2023/04/27 06:18:55;;;;;;;2.33;1.40;;;14.10;98.20;;;;;;5046460;28;20064;-70
2023/04/27 06:21:21;;;;;;;4.28;1.70;;;14.50;97.50;;;;;;5034393;28;20070;-71
2023/04/27 06:23:47;;;;;;;5.93;2.22;;;14.80;96.50;;;;;;5047669;28;20037;-71
2023/04/27 06:26:18;;;;;;;4.93;1.77;;;15.10;93.90;;;;;;5048015;28;20037;-70
2023/04/27 06:28:43;;;;;;;2.15;1.00;;;15.40;93.90;;;;;;5047385;28;20079;-74
2023/04/27 06:31:09;;;;;;;4.55;1.92;;;15.80;92.80;;;;;;5047575;28;20033;-71
2023/04/27 06:33:40;;;;;;;3.15;0.90;;;16.30;93.30;;;;;;5048603;28;20113;-70
2023/04/27 06:36:15;;;;;;;3.33;1.15;;;16.70;92.00;;;;;;5046937;28;20044;-69
2023/04/27 06:38:41;;;;;;;3.78;1.50;;;17.10;90.90;;;;;;5034227;28;20116;-71
2023/04/27 06:41:06;;;;;;;3.15;1.13;;;16.80;91.00;;;;;;5046916;28;20564;-70
2023/04/27 06:43:32;;;;;;;6.22;1.45;;;17.20;91.50;;;;;;5047816;28;20029;-70
2023/04/27 06:45:57;;;;;;;3.47;1.20;;;17.40;91.40;;;;;;5029780;28;20097;-73
2023/04/27 06:48:26;;;;;;;2.00;1.23;;;18.00;89.80;;;;;;5048048;28;20127;-71
2023/04/27 06:50:51;;;;;;;2.22;1.00;;;18.20;89.50;;;;;;5042622;28;20021;-72
2023/04/27 06:53:20;;;;;;;3.53;1.20;;;18.60;86.90;;;;;;5029762;28;20086;-70
2023/04/27 06:55:46;;;;;;;2.35;1.20;;;18.90;84.80;;;;;;5027812;28;20459;-70
2023/04/27 06:58:21;;;;;;;4.40;2.13;;;18.90;86.10;;;;;;5046154;28;20063;-71
2023/04/27 07:00:50;;;;;;;6.43;1.38;;;19.00;84.40;;;;;;5046080;28;20039;-71
2023/04/27 07:03:16;;;;;;;5.75;1.38;;;18.40;85.30;;;;;;5050650;28;20057;-71
2023/04/27 07:05:41;;;;;;;4.53;0.90;;;18.50;87.20;;;;;;5041541;28;20076;-70
2023/04/27 07:08:07;;;;;;;5.18;1.20;;;18.30;85.50;;;;;;5046744;28;20025;-72
2023/04/27 07:10:36;;;;;;;3.55;1.02;;;18.00;83.70;;;;;;5046380;28;20083;-70
2023/04/27 07:13:01;;;;;;;4.40;1.10;;;17.70;83.70;;;;;;5045417;28;20036;-71
2023/04/27 07:15:30;;;;;;;2.90;1.20;;;17.50;83.50;;;;;;5030831;28;20034;-71
2023/04/27 07:17:59;;;;;;;1.55;0.45;;;17.00;82.30;;;;;;5045158;28;20396;-70
2023/04/27 07:20:25;;;;;;;4.15;0.75;;;16.10;83.20;;;;;;5043514;28;20037;-70
2023/04/27 07:22:51;;;;;;;4.38;0.93;;;15.20;86.70;;;;;;5045121;28;20025;-71
2023/04/27 07:25:19;;;;;;;1.48;0.70;;;14.80;86.80;;;;;;5046987;28;20032;-70
2023/04/27 07:27:45;;;;;;;3.22;0.52;;;14.20;89.80;;;;;;5029562;28;20029;-71
2023/04/27 07:30:16;;;;;;;1.60;0.80;;;13.90;89.30;;;;;;5045968;28;20061;-70
2023/04/27 07:32:42;;;;;;;3.40;0.80;;;13.60;90.80;;;;;;5030493;28;20045;-70
2023/04/27 07:35:10;;;;;;;2.20;1.10;;;13.50;90.90;;;;;;5045564;28;20128;-71
2023/04/27 07:37:39;;;;;;;2.65;0.90;;;13.30;90.70;;;;;;5032188;28;20037;-71
2023/04/27 07:40:15;;;;;;;2.13;0.85;;;13.20;91.30;;;;;;5032627;28;20075;-70
2023/04/27 07:42:41;;;;;;;5.10;0.85;;;13.10;92.50;;;;;;5030300;28;20062;-70
2023/04/27 07:45:08;;;;;;;2.08;0.80;;;13.00;92.10;;;;;;5040987;28;20029;-70
2023/04/27 07:47:34;;;;;;;1.80;0.70;;;13.10;91.40;;;;;;5041874;28;20124;-70
2023/04/27 07:49:59;;;;;;;4.10;1.20;;;13.10;90.50;;;;;;5028314;28;20108;-70
2023/04/27 07:52:25;;;;;;;3.90;0.88;;;12.90;90.00;;;;;;5044490;28;20041;-71
2023/04/27 07:54:51;;;;;;;1.98;0.80;;;12.70;91.00;;;;;;5043455;28;20473;-73
2023/04/27 07:57:16;;;;;;;2.05;0.90;;;12.80;91.40;;;;;;5027783;28;20045;-69
2023/04/27 07:59:42;;;;;;;3.22;1.00;;;12.70;91.50;;;;;;5026133;28;20040;-69
2023/04/27 08:02:08;;;;;;;7.45;1.33;;;12.80;91.20;;;;;;5044667;28;20089;-70
2023/04/27 08:04:36;;;;;;;3.38;0.95;;;12.90;90.00;;;;;;5045891;28;20669;-71
2023/04/27 08:07:02;;;;;;;3.28;0.90;;;12.90;91.30;;;;;;5052462;28;20044;-71
2023/04/27 08:09:27;;;;;;;2.47;0.70;;;12.80;91.50;;;;;;5044848;28;20108;-70
2023/04/27 08:11:53;;;;;;;1.55;0.45;;;12.80;90.90;;;;;;5033947;28;20511;-71
2023/04/27 08:14:18;;;;;;;3.83;0.82;;;12.80;91.90;;;;;;5036504;28;20037;-70
2023/04/27 08:16:44;;;;;;;1.92;0.73;;;12.90;90.70;;;;;;5042668;28;20470;-75
2023/04/27 08:19:10;;;;;;;3.40;0.73;;;12.80;91.20;;;;;;5035554;28;20028;-70
2023/04/27 08:21:36;;;;;;;1.48;0.50;;;12.70;91.30;;;;;;5047006;28;20033;-72
2023/04/27 08:24:03;;;;;;;3.63;0.80;;;12.80;91.60;;;;;;5045935;28;20071;-71
2023/04/27 08:26:29;;;;;;;6.18;0.70;;;12.90;91.50;;;;;;5029112;28;20135;-71
2023/04/27 08:28:58;;;;;;;1.20;0.68;;;12.90;90.80;;;;;;5045284;28;20088;-70
2023/04/27 08:31:27;;;;;;;3.75;0.85;;;13.00;91.10;;;;;;5034827;28;20052;-71
2023/04/27 08:33:53;;;;;;;4.25;1.23;;;13.20;91.40;;;;;;5031862;28;20067;-71
2023/04/27 08:36:23;;;;;;;5.20;0.63;;;13.10;90.80;;;;;;5053028;28;20433;-70
2023/04/27 08:38:52;;;;;;;1.48;0.73;;;13.10;91.60;;;;;;5045747;28;20060;-70
2023/04/27 08:41:22;;;;;;;2.95;0.90;;;13.20;92.30;;;;;;5036628;28;20032;-70
2023/04/27 08:43:48;;;;;;;3.50;0.77;;;13.20;90.80;;;;;;5036795;28;20045;-71
2023/04/27 08:46:22;;;;;;;3.00;0.60;;;13.20;90.60;;;;;;5046685;28;20182;-70
2023/04/27 08:48:51;;;;;;;2.47;0.70;;;13.20;90.40;;;;;;5029228;28;20036;-71
2023/04/27 08:51:20;;;;;;;1.90;0.60;;;13.20;90.80;;;;;;5046463;28;20039;-70
2023/04/27 08:53:51;;;;;;;5.35;0.93;;;13.20;90.70;;;;;;5042844;28;20033;-70
2023/04/27 08:56:22;;;;;;;3.97;0.82;;;13.10;89.30;;;;;;5044161;28;20044;-70
2023/04/27 08:58:48;;;;;;;4.00;0.60;;;13.10;89.30;;;;;;5044933;28;20025;-70
2023/04/27 09:01:14;;;;;;;3.53;0.55;;;13.00;90.30;;;;;;5032019;28;20041;-70
2023/04/27 09:03:40;;;;;;;4.15;1.33;;;13.00;90.60;;;;;;5046542;28;20043;-70
2023/04/27 09:06:07;;;;;;;1.55;0.65;;;13.00;91.00;;;;;;5035518;28;20464;-70
2023/04/27 09:08:49;;;;;;;3.67;1.05;;;13.10;90.50;;;;;;5033105;28;20071;-70
2023/04/27 09:11:27;;;;;;;3.72;0.75;;;13.20;90.70;;;;;;5041348;28;20041;-70
2023/04/27 09:13:52;;;;;;;3.38;0.88;;;13.20;90.20;;;;;;5027139;28;20033;-71
2023/04/27 09:16:22;;;;;;;1.38;0.75;;;13.20;90.90;;;;;;5031481;28;20037;-70
2023/04/27 09:18:48;;;;;;;1.45;0.68;;;13.20;90.60;;;;;;5049782;28;20048;-72
2023/04/27 09:21:31;;;;;;;2.50;0.70;;;13.20;89.00;;;;;;5049993;28;20413;-70
2023/04/27 09:24:12;;;;;;;4.70;0.82;;;13.30;90.80;;;;;;5047718;28;20116;-71
2023/04/27 09:26:38;;;;;;;2.10;0.80;;;13.40;89.00;;;;;;5041173;28;20083;-71
2023/04/27 09:29:07;;;;;;;6.65;1.40;;;13.40;88.70;;;;;;5049383;28;20037;-71
2023/04/27 09:31:34;;;;;;;2.63;0.80;;;13.40;89.80;;;;;;5040736;28;20082;-70
2023/04/27 09:34:00;;;;;;;3.67;0.70;;;13.40;89.20;;;;;;5049375;28;20113;-71
2023/04/27 09:36:26;;;;;;;3.67;0.70;;;13.40;90.00;;;;;;5041053;28;20055;-71
2023/04/27 09:38:52;;;;;;;1.70;1.13;;;13.50;88.30;;;;;;5037228;28;20036;-72
2023/04/27 09:41:18;;;;;;;1.55;0.50;;;13.60;88.20;;;;;;5049658;28;20036;-71
2023/04/27 09:43:45;;;;;;;3.60;1.38;;;13.60;87.50;;;;;;5038640;28;20052;-70
2023/04/27 09:46:16;;;;;;;4.40;0.80;;;13.60;86.10;;;;;;5026895;28;20433;-71
2023/04/27 09:48:42;;;;;;;2.67;0.77;;;13.70;88.70;;;;;;5044651;28;20037;-69
2023/04/27 09:51:08;;;;;;;1.73;0.85;;;13.80;88.60;;;;;;5032811;28;20687;-70
2023/04/27 09:53:45;;;;;;;1.08;0.43;;;14.00;88.20;;;;;;5031125;28;20033;-70
2023/04/27 09:56:27;;;;;;;4.05;0.70;;;14.10;85.40;;;;;;5044798;28;20049;-70
2023/04/27 09:59:24;;;;;;;4.32;1.45;;;14.10;86.80;;;;;;5040773;28;20057;-71
2023/04/27 10:01:54;;;;;;;2.08;0.70;;;14.30;88.20;;;;;;5048361;28;20056;-70
2023/04/27 10:04:38;;;;;;;2.42;0.80;;;14.40;85.00;;;;;;5039524;28;20037;-70
2023/04/27 10:07:06;;;;;;;4.00;0.80;;;14.50;85.90;;;;;;5046819;28;20029;-72
2023/04/27 10:09:45;;;;;;;2.83;0.65;;;14.50;85.20;;;;;;5030866;28;20029;-70
2023/04/27 10:12:17;;;;;;;3.03;0.68;;;14.50;86.70;;;;;;5036176;28;20122;-72
2023/04/27 10:14:50;;;;;;;2.97;0.90;;;14.60;87.00;;;;;;5032472;28;20033;-71
2023/04/27 10:17:17;;;;;;;3.63;1.02;;;14.70;85.20;;;;;;5046693;28;20097;-70
2023/04/27 10:20:02;;;;;;;4.32;0.55;;;14.70;87.10;;;;;;5033349;28;20112;-70
2023/04/27 10:22:45;;;;;;;2.28;1.00;;;14.80;84.70;;;;;;5046425;28;20592;-72
2023/04/27 10:25:24;;;;;;;2.80;0.85;;;14.80;82.60;;;;;;5042147;28;20060;-72
2023/04/27 10:28:00;;;;;;;2.38;0.60;;;14.80;82.30;;;;;;5043850;28;20029;-72
2023/04/27 10:30:30;;;;;;;1.88;0.70;;;14.80;84.60;;;;;;5031349;28;20124;-70
2023/04/27 10:32:58;;;;;;;2.72;0.90;;;14.80;82.10;;;;;;5031541;28;20057;-71
2023/04/27 10:35:44;;;;;;;2.78;0.80;;;14.80;80.50;;;;;;5046314;28;20144;-71
2023/04/27 10:38:18;;;;;;;5.70;1.25;;;14.60;81.10;;;;;;5042975;28;20104;-70
2023/04/27 10:40:45;;;;;;;4.10;0.90;;;14.40;81.20;;;;;;5039945;28;20727;-70
2023/04/27 10:43:16;;;;;;;1.83;0.63;;;14.20;81.80;;;;;;5046243;28;20036;-70
2023/04/27 10:45:42;;;;;;;3.72;0.85;;;14.10;82.60;;;;;;5046681;28;20026;-71
2023/04/27 10:48:11;;;;;;;3.28;0.95;;;14.20;85.10;;;;;;5046200;28;20083;-70
2023/04/27 10:50:37;;;;;;;2.60;1.13;;;14.30;82.80;;;;;;5043005;28;20382;-70
2023/04/27 10:53:04;;;;;;;3.83;0.82;;;14.40;81.40;;;;;;5046670;28;20063;-70
2023/04/27 10:55:31;;;;;;;3.28;1.17;;;14.30;81.20;;;;;;5047145;28;20056;-70
2023/04/27 10:57:57;;;;;;;9.50;1.63;;;14.40;83.20;;;;;;5032680;28;20029;-71
2023/04/27 11:00:30;;;;;;;3.08;1.23;;;14.30;81.20;;;;;;5033094;28;20115;-71
2023/04/27 11:03:15;;;;;;;4.25;1.05;;;14.10;80.20;;;;;;5029327;28;20029;-70
2023/04/27 11:05:43;;;;;;;4.13;1.40;;;14.00;81.40;;;;;;5023244;28;20107;-69
2023/04/27 11:08:20;;;;;;;4.35;1.10;;;14.10;82.00;;;;;;5025806;28;20496;-70
2023/04/27 11:10:50;;;;;;;6.20;1.27;;;14.10;82.60;;;;;;5027192;28;20033;-72
2023/04/27 11:13:24;;;;;;;6.18;1.25;;;14.10;80.90;;;;;;5047140;28;20068;-71
2023/04/27 11:15:54;;;;;;;2.03;0.88;;;14.00;81.90;;;;;;5030067;28;20071;-71
2023/04/27 11:18:39;;;;;;;5.45;1.67;;;13.90;83.30;;;;;;5047054;28;20485;-70
2023/04/27 11:21:14;;;;;;;4.65;1.45;;;13.90;84.40;;;;;;5041673;28;20425;-69
2023/04/27 11:23:41;;;;;;;1.95;1.52;;;14.00;81.40;;;;;;5043356;28;20068;-69
2023/04/27 11:26:18;;;;;;;6.07;1.23;;;13.90;82.10;;;;;;5045698;28;20083;-71
2023/04/27 11:28:57;;;;;;;3.97;1.10;;;13.90;81.20;;;;;;5029624;28;20031;-70
2023/04/27 11:31:23;;;;;;;4.18;1.30;;;13.90;81.00;;;;;;5046003;28;20049;-71
2023/04/27 11:33:50;;;;;;;4.95;1.77;;;13.90;83.60;;;;;;5045975;28;20429;-70
2023/04/27 11:36:17;;;;;;;2.97;1.20;;;13.90;83.50;;;;;;5035323;28;20094;-69
2023/04/27 11:38:42;;;;;;;2.72;1.20;;;14.00;82.30;;;;;;5046123;28;20423;-70
2023/04/27 11:41:08;;;;;;;1.38;0.90;;;14.10;83.40;;;;;;5045275;28;20039;-69
2023/04/27 11:43:36;;;;;;;3.50;1.80;;;14.10;81.50;;;;;;5046754;28;20135;-71
2023/04/27 11:46:07;;;;;;;4.43;1.10;;;14.10;81.80;;;;;;5045195;28;20560;-70
2023/04/27 11:48:36;;;;;;;2.70;1.30;;;14.20;81.50;;;;;;5045136;28;20040;-69
2023/04/27 11:51:09;;;;;;;4.68;1.23;;;14.30;80.80;;;;;;5029858;28;20040;-71
2023/04/27 11:53:36;;;;;;;4.38;1.73;;;14.20;81.10;;;;;;5046777;28;20820;-72
2023/04/27 11:56:09;;;;;;;7.65;1.77;;;14.10;81.60;;;;;;5044848;28;20033;-70
2023/04/27 11:58:36;;;;;;;4.40;1.17;;;14.10;80.40;;;;;;5036580;28;20087;-70
2023/04/27 12:01:09;;;;;;;4.90;1.17;;;14.00;80.10;;;;;;5045359;28;20178;-70
2023/04/27 12:03:35;;;;;;;3.30;0.98;;;13.90;81.00;;;;;;5027437;28;20049;-71
2023/04/27 12:06:00;;;;;;;4.88;1.60;;;13.90;81.30;;;;;;5044868;28;20060;-70
2023/04/27 12:08:35;;;;;;;3.25;0.98;;;13.90;78.30;;;;;;5031777;28;20064;-71
2023/04/27 12:11:07;;;;;;;6.75;1.10;;;13.90;80.20;;;;;;5021281;28;20096;-70
2023/04/27 12:13:32;;;;;;;3.38;1.25;;;13.90;80.20;;;;;;5044158;28;20452;-71
2023/04/27 12:15:58;;;;;;;3.55;1.83;;;13.80;78.70;;;;;;5044521;28;20025;-69
2023/04/27 12:18:23;;;;;;;3.30;1.50;;;13.80;80.40;;;;;;5045077;28;20040;-71
2023/04/27 12:20:49;;;;;;;3.05;1.27;;;13.90;83.20;;;;;;5026877;28;20040;-71
2023/04/27 12:23:17;;;;;;;2.22;1.08;;;14.10;84.50;;;;;;5034698;28;20032;-70
2023/04/27 12:25:43;;;;;;;2.03;1.17;;;14.20;82.90;;;;;;5017907;28;20132;-69
2023/04/27 12:28:08;;;;;;;5.55;1.60;;;14.20;79.80;;;;;;5029924;28;20143;-69
2023/04/27 12:30:34;;;;;;;4.40;1.73;;;14.10;79.50;;;;;;5026739;28;20691;-70
2023/04/27 12:33:01;;;;;;;2.80;1.58;;;14.10;79.20;;;;;;5025754;28;20029;-71
2023/04/27 12:35:30;;;;;;;5.68;1.30;;;14.10;80.50;;;;;;5028033;28;20033;-69
2023/04/27 12:37:56;;;;;;;5.78;1.48;;;14.00;79.50;;;;;;5022962;28;20436;-67
2023/04/27 12:40:25;;;;;;;5.50;1.20;;;14.00;80.10;;;;;;5014714;28;20037;-70
2023/04/27 12:42:50;;;;;;;2.00;1.10;;;13.90;80.30;;;;;;5042064;28;20554;-72
2023/04/27 12:45:16;;;;;;;3.88;1.20;;;13.90;80.80;;;;;;5041887;28;20033;-71
2023/04/27 12:47:47;;;;;;;2.90;1.10;;;13.90;80.40;;;;;;5042252;28;20036;-69
2023/04/27 12:50:19;;;;;;;4.03;0.82;;;13.90;79.40;;;;;;5024689;28;20045;-70
2023/04/27 12:52:46;;;;;;;1.77;0.93;;;13.90;80.80;;;;;;5029489;28;20108;-71
2023/04/27 12:55:18;;;;;;;5.57;1.25;;;13.80;81.20;;;;;;5041636;28;20028;-71